Ireland METAR reports

 

EIDW - Dublin Airport, Ireland
Distance from station: WNW 13km
Updated: 20/01/2018 16:30
Light rain, Drizzle, Mostly cloudy
Light rain, Drizzle, Mostly cloudy
 Wind from N
Wind: N 13 km/h
Temperature: 4°C
Wind Chill: 1°C
Dew Point: 4°C
Humidity: 100%
Barometer: 1004 hPa
Summary: Light rain, Drizzle
Clouds: Mostly cloudy
Visibility: 4 km
Cloud details: Few Clouds 183 m
Partly cloudy 274 m
Mostly cloudy 488 m
2018/01/20 16:30 EIDW 201630Z 01007KT 4000 -RADZ FEW006 SCT009 BKN016 04/04 Q1004 NOSIG
EIME - Casement (mil), Ireland
Distance from station: WSW 26km
Updated: 20/01/2018 16:00
Light drizzle, Mostly cloudy
Light drizzle, Mostly cloudy
 Wind from ENE
Wind: ENE 9 km/h
Temperature: 4°C
Wind Chill: 2°C
Dew Point: 4°C
Humidity: 100%
Barometer: 1003 hPa
Summary: Light Drizzle
Clouds: Mostly cloudy
Visibility: 5 km
Cloud details: Few Clouds 61 m
Mostly cloudy 213 m
2018/01/20 16:00 EIME 201600Z 06005KT 030V090 5000 -DZ FEW002 BKN007 04/04 Q1003
EGAC - Belfast Harbour, United Kingdom
Distance from station: N 140km
Updated: 20/01/2018 16:20
Partly cloudy
Partly cloudy
 Wind from NNW
Wind: NNW 4 km/h
Temperature: 3°C
Dew Point: 1°C
Humidity: 87%
Barometer: 1004 hPa
Clouds: Partly cloudy
Visibility: 10 km
Cloud details: Few Clouds 884 m
Partly cloudy 1158 m
2018/01/20 16:20 EGAC 201620Z 33002KT 9999 FEW029 SCT038 03/01 Q1004
 
EGAA - Belfast/Aldergro, United Kingdom
Distance from station: N 141km
Updated: 20/01/2018 16:20
Clear
Clear
 Wind from W
Wind: W 6 km/h
Temperature: 2°C
Dew Point: 1°C
Humidity: 93%
Barometer: 1005 hPa
Summary: Clear
Visibility: greater than 10 km
2018/01/20 16:20 EGAA 201620Z 28003KT CAVOK 02/01 Q1005
EIWF - Waterford Arpt, Ireland
Distance from station: SSW 148km
Updated: 20/01/2018 16:00
Mostly cloudy
Mostly cloudy
 Wind from NW
Wind: NW 26 km/h, Gust: 44 km/h
Temperature: 9°C
Wind Chill: 6°C
Dew Point: 6°C
Humidity: 82%
Barometer: 1003 hPa
Clouds: Mostly cloudy
Visibility: 10 km
Cloud details: Partly cloudy 671 m
Mostly cloudy 1463 m
2018/01/20 16:00 EIWF 201600Z 32014G24KT 280V360 9999 SCT022 BKN048 09/06 Q1003
EIKN - Connaught Apt, Ireland
Distance from station: WNW 191km
Updated: 20/01/2018 16:30
Mostly cloudy
Mostly cloudy
 Wind from NE
Wind: NE 6 km/h
Temperature: 2°C
Dew Point: 1°C
Humidity: 93%
Barometer: 1005 hPa
Clouds: Mostly cloudy
Visibility: 10 km
Cloud details: Mostly cloudy 122 m
Mostly cloudy 610 m
2018/01/20 16:30 EIKN 201630Z 04003KT 9999 BKN004 BKN020 02/01 Q1005 NOSIG
 
EISG - Sligo Arpt, Ireland
Distance from station: WNW 195km
Updated: 20/01/2018 16:00
Partly cloudy
Partly cloudy
 Wind from NNW
Wind: NNW 2 km/h
Temperature: 3°C
Dew Point: 2°C
Humidity: 93%
Barometer: 1005 hPa
Clouds: Partly cloudy
Visibility: 10 km
Cloud details: Partly cloudy 427 m
Partly cloudy 610 m
2018/01/20 16:00 EISG 201600Z 34001KT 9999 SCT014 SCT020 03/02 Q1005
EGAE - Eglinton/Londond, United Kingdom
Distance from station: NNW 198km
Updated: 20/01/2018 15:50
Mostly cloudy
Mostly cloudy
 Wind from calm
Wind: Calm
Temperature: 5°C
Dew Point: 2°C
Humidity: 81%
Barometer: 1004 hPa
Clouds: Mostly cloudy
Visibility: 10 km
Cloud details: Few Clouds 762 m
Mostly cloudy 1372 m
2018/01/20 15:50 EGAE 201550Z 00000KT 9999 FEW025 BKN045 05/02 Q1004
EINN - Shannon Airport, Ireland
Distance from station: WSW 204km
Updated: 20/01/2018 16:30
Light drizzle, Mostly cloudy
Light drizzle, Mostly cloudy
 Wind from W
Wind: W 28 km/h
Temperature: 9°C
Wind Chill: 6°C
Dew Point: 6°C
Humidity: 82%
Barometer: 1005 hPa
Summary: Light Drizzle
Clouds: Mostly cloudy
Visibility: 10 km
Cloud details: Few Clouds 488 m
Mostly cloudy 792 m
2018/01/20 16:30 EINN 201630Z 27015KT 9999 -DZ FEW016 BKN026 09/06 Q1005 NOSIG
 
EICK - Cork Arpt/Corcai, Ireland
Distance from station: SW 234km
Updated: 20/01/2018 16:30
Mostly cloudy
Mostly cloudy
 Wind from NW
Wind: NW 30 km/h
Temperature: 8°C
Wind Chill: 4°C
Dew Point: 3°C
Humidity: 71%
Barometer: 1005 hPa
Clouds: Mostly cloudy
Visibility: 10 km
Cloud details: Few Clouds 914 m
Mostly cloudy 7620 m
2018/01/20 16:30 EICK 201630Z 31016KT 9999 FEW030 BKN250 08/03 Q1005 WS RWY35 NOSIG